Time;durP1;ratioP1;P1;durP2;ratioP2;P2;SDS_P1;SDS_P2;PMS_P1;PMS_P2;Temp;Humidity;BMP_temperature;BMP_pressure;BME280_temperature;BME280_humidity;BME280_pressure;Samples;Min_cycle;Max_cycle;Signal;HPM_P1;HPM_P2
2022/09/05 00:01:43;;;;;;;62.30;58.92;;;22.90;68.00;;;;;;5055991;28;20040;-82
2022/09/05 00:04:09;;;;;;;68.22;64.60;;;22.80;68.10;;;;;;5052227;28;20021;-82
2022/09/05 00:06:36;;;;;;;81.43;76.97;;;22.80;68.10;;;;;;5053518;28;20036;-83
2022/09/05 00:09:20;;;;;;;100.25;95.07;;;22.70;68.50;;;;;;5035069;28;20497;-82
2022/09/05 00:11:55;;;;;;;100.10;94.85;;;22.60;68.80;;;;;;5052082;28;20382;-82
2022/09/05 00:14:45;;;;;;;105.20;99.60;;;22.60;68.80;;;;;;5035298;28;20041;-82
2022/09/05 00:17:48;;;;;;;110.55;104.60;;;22.50;69.00;;;;;;5051516;28;20056;-83
2022/09/05 00:20:18;;;;;;;106.65;101.15;;;22.50;68.90;;;;;;5044294;28;20037;-83
2022/09/05 00:23:27;;;;;;;105.40;99.90;;;22.50;68.90;;;;;;5013981;28;20038;-83
2022/09/05 00:26:16;;;;;;;102.88;97.20;;;22.50;68.90;;;;;;5013886;28;20034;-82
2022/09/05 00:29:14;;;;;;;110.65;104.90;;;22.50;69.20;;;;;;5016672;28;20176;-82
2022/09/05 00:31:46;;;;;;;111.13;105.30;;;22.30;70.50;;;;;;5014460;28;20403;-82
2022/09/05 00:34:42;;;;;;;108.30;102.88;;;22.20;70.00;;;;;;4998061;28;20076;-82
2022/09/05 00:37:08;;;;;;;107.07;101.28;;;22.20;70.10;;;;;;5013527;28;20026;-83
2022/09/05 00:39:39;;;;;;;109.40;103.53;;;22.20;70.20;;;;;;5013165;28;20510;-82
2022/09/05 00:42:14;;;;;;;109.18;103.63;;;22.20;70.10;;;;;;5013882;28;20495;-82
2022/09/05 00:44:49;;;;;;;103.85;98.60;;;22.10;70.20;;;;;;5006000;28;20393;-82
2022/09/05 00:47:28;;;;;;;97.70;92.28;;;22.20;70.20;;;;;;4996551;28;20033;-82
2022/09/05 00:49:58;;;;;;;96.20;91.32;;;22.20;70.00;;;;;;5013606;28;20570;-82
2022/09/05 00:52:37;;;;;;;97.22;92.07;;;22.20;70.10;;;;;;5013530;28;20088;-82
2022/09/05 00:55:13;;;;;;;85.18;80.65;;;22.10;71.90;;;;;;5013932;28;20483;-82
2022/09/05 00:57:58;;;;;;;89.90;85.15;;;21.80;73.30;;;;;;5031477;28;20060;-82
2022/09/05 01:00:31;;;;;;;94.28;89.07;;;21.60;74.00;;;;;;5030736;28;20044;-82
2022/09/05 01:03:08;;;;;;;92.25;87.53;;;21.40;74.90;;;;;;5030867;28;20037;-82
2022/09/05 01:06:05;;;;;;;68.93;65.25;;;21.20;75.40;;;;;;5046550;28;20059;-83
2022/09/05 01:08:45;;;;;;;50.00;47.15;;;21.20;75.90;;;;;;5032256;28;20033;-82
2022/09/05 01:11:19;;;;;;;48.22;45.40;;;21.20;75.80;;;;;;5047411;28;20087;-82
2022/09/05 01:13:52;;;;;;;39.30;37.08;;;21.30;74.40;;;;;;5046772;28;20049;-82
2022/09/05 01:16:27;;;;;;;42.40;39.70;;;21.40;73.80;;;;;;5046143;28;20026;-82
2022/09/05 01:19:15;;;;;;;58.75;55.55;;;21.50;74.40;;;;;;5030671;28;20046;-82
2022/09/05 01:22:02;;;;;;;40.67;38.38;;;21.20;76.20;;;;;;5030230;28;20406;-82
2022/09/05 01:24:40;;;;;;;37.45;35.45;;;21.10;75.90;;;;;;5032041;28;20386;-82
2022/09/05 01:27:44;;;;;;;38.58;36.13;;;21.20;75.00;;;;;;5050401;28;20508;-82
2022/09/05 01:30:22;;;;;;;38.53;35.90;;;21.30;74.60;;;;;;5050112;28;20086;-82
2022/09/05 01:32:58;;;;;;;37.42;34.97;;;21.30;74.10;;;;;;5035452;28;20509;-82
2022/09/05 01:35:27;;;;;;;52.13;49.15;;;21.40;74.80;;;;;;5034575;28;20032;-82
2022/09/05 01:38:27;;;;;;;51.45;48.50;;;21.30;75.80;;;;;;5051708;28;20036;-82
2022/09/05 01:41:04;;;;;;;47.35;44.00;;;21.00;76.90;;;;;;5032765;28;20052;-83
2022/09/05 01:43:55;;;;;;;36.20;33.85;;;20.80;77.40;;;;;;5033007;28;20386;-82
2022/09/05 01:46:21;;;;;;;32.67;30.67;;;20.80;77.80;;;;;;5074684;28;20048;-82
2022/09/05 01:48:51;;;;;;;34.08;31.40;;;20.80;77.90;;;;;;5051123;28;20056;-83
2022/09/05 01:51:33;;;;;;;33.20;31.38;;;20.80;78.10;;;;;;5049117;28;20534;-82
2022/09/05 01:54:17;;;;;;;33.38;31.38;;;20.80;77.80;;;;;;5051302;28;20043;-82
2022/09/05 01:56:51;;;;;;;32.67;30.40;;;20.80;78.10;;;;;;5051437;28;20033;-82
2022/09/05 01:59:37;;;;;;;32.05;30.15;;;20.90;77.10;;;;;;5033157;28;20029;-82
2022/09/05 02:02:22;;;;;;;32.15;30.13;;;20.80;78.10;;;;;;5049496;28;20045;-82
2022/09/05 02:05:08;;;;;;;30.88;28.70;;;20.70;78.90;;;;;;5049501;28;20040;-82
2022/09/05 02:07:47;;;;;;;31.42;29.40;;;20.60;78.40;;;;;;5051206;28;20494;-82
2022/09/05 02:10:36;;;;;;;30.63;28.70;;;20.80;77.50;;;;;;5033348;28;20041;-83
2022/09/05 02:13:23;;;;;;;37.60;35.45;;;20.90;77.20;;;;;;5049875;28;20402;-82
2022/09/05 02:16:28;;;;;;;38.08;35.80;;;21.00;76.80;;;;;;5032731;28;20029;-82
2022/09/05 02:18:59;;;;;;;37.45;35.22;;;21.10;76.60;;;;;;5048162;28;20040;-82
2022/09/05 02:22:01;;;;;;;37.17;35.00;;;21.10;76.70;;;;;;5048173;28;20048;-82
2022/09/05 02:24:36;;;;;;;34.60;32.55;;;20.80;77.90;;;;;;5011943;28;20060;-82
2022/09/05 02:27:27;;;;;;;36.65;34.20;;;20.80;77.70;;;;;;5021618;28;20510;-82
2022/09/05 02:30:19;;;;;;;33.80;31.55;;;21.00;77.00;;;;;;4989118;28;20407;-83
2022/09/05 02:32:53;;;;;;;32.80;30.73;;;21.10;75.90;;;;;;5006138;28;20052;-82
2022/09/05 02:35:28;;;;;;;33.13;31.33;;;21.10;76.00;;;;;;5040665;28;20139;-82
2022/09/05 02:38:01;;;;;;;34.17;32.05;;;21.10;75.70;;;;;;5040692;28;20059;-82
2022/09/05 02:40:36;;;;;;;31.35;29.48;;;21.10;75.50;;;;;;5024744;28;20480;-83
2022/09/05 02:43:23;;;;;;;30.45;28.65;;;21.10;75.40;;;;;;5008639;28;20045;-82
2022/09/05 02:46:11;;;;;;;35.83;33.33;;;21.10;75.50;;;;;;5007797;28;20030;-82
2022/09/05 02:48:58;;;;;;;37.42;35.17;;;21.20;75.80;;;;;;5024359;28;20042;-82
2022/09/05 02:51:46;;;;;;;38.05;35.58;;;21.20;75.00;;;;;;5023854;28;20041;-82
2022/09/05 02:54:32;;;;;;;36.20;34.05;;;21.20;75.10;;;;;;5022315;28;20058;-82
2022/09/05 02:57:26;;;;;;;37.33;35.17;;;21.20;75.00;;;;;;5024419;28;20042;-81
2022/09/05 03:00:04;;;;;;;37.80;35.25;;;21.20;74.60;;;;;;5008499;28;20038;-82
2022/09/05 03:02:49;;;;;;;36.33;34.22;;;21.20;75.00;;;;;;5025895;28;20045;-82
2022/09/05 03:05:28;;;;;;;37.05;34.97;;;21.20;74.90;;;;;;5014885;28;20387;-82
2022/09/05 03:07:54;;;;;;;38.13;35.83;;;21.20;75.10;;;;;;5013486;28;20026;-82
2022/09/05 03:10:49;;;;;;;37.95;35.25;;;21.10;75.40;;;;;;5014799;28;20042;-82
2022/09/05 03:13:18;;;;;;;36.97;34.95;;;21.00;76.00;;;;;;5013336;28;20030;-82
2022/09/05 03:15:49;;;;;;;37.42;35.20;;;20.90;76.30;;;;;;5018484;28;20021;-82
2022/09/05 03:18:30;;;;;;;34.58;32.38;;;20.70;77.10;;;;;;5034421;28;20374;-82
2022/09/05 03:21:18;;;;;;;36.33;34.20;;;20.70;76.90;;;;;;5034428;28;20355;-83
2022/09/05 03:23:59;;;;;;;36.50;33.92;;;20.80;76.60;;;;;;5034321;28;20030;-82
2022/09/05 03:26:56;;;;;;;36.45;34.38;;;20.90;76.20;;;;;;5034258;28;20052;-82
2022/09/05 03:29:37;;;;;;;35.20;32.92;;;20.90;75.90;;;;;;5034096;28;20041;-82
2022/09/05 03:32:12;;;;;;;36.03;33.80;;;20.90;76.20;;;;;;5031808;28;20045;-82
2022/09/05 03:34:44;;;;;;;34.78;32.55;;;20.80;76.30;;;;;;5033985;28;20041;-82
2022/09/05 03:37:46;;;;;;;32.15;30.13;;;20.70;76.80;;;;;;5034264;28;20041;-82
2022/09/05 03:40:25;;;;;;;28.33;26.58;;;20.50;78.20;;;;;;5041073;28;20028;-82
2022/09/05 03:43:22;;;;;;;27.73;25.90;;;20.30;79.00;;;;;;5053106;28;20029;-82
2022/09/05 03:46:00;;;;;;;27.30;25.17;;;20.30;78.90;;;;;;5032040;28;20044;-82
2022/09/05 03:48:52;;;;;;;28.95;27.00;;;20.20;79.40;;;;;;5052821;28;20049;-82
2022/09/05 03:51:25;;;;;;;29.73;27.70;;;20.30;78.80;;;;;;5052564;28;20032;-82
2022/09/05 03:54:06;;;;;;;28.65;26.75;;;20.50;78.60;;;;;;5052142;28;20055;-82
2022/09/05 03:56:51;;;;;;;27.20;25.30;;;20.50;77.50;;;;;;5052504;28;20029;-82
2022/09/05 03:59:38;;;;;;;27.23;25.35;;;20.50;78.00;;;;;;5053289;28;20033;-82
2022/09/05 04:02:06;;;;;;;26.95;25.25;;;20.30;79.30;;;;;;5053033;28;20493;-82
2022/09/05 04:04:41;;;;;;;26.00;24.50;;;20.20;78.80;;;;;;5052136;28;20036;-82
2022/09/05 04:07:19;;;;;;;26.17;24.38;;;20.30;79.20;;;;;;5068630;28;20402;-82
2022/09/05 04:09:47;;;;;;;26.83;24.95;;;20.20;79.80;;;;;;5053287;28;20033;-82
2022/09/05 04:12:16;;;;;;;26.15;24.33;;;20.10;79.20;;;;;;5052179;28;20478;-82
2022/09/05 04:14:45;;;;;;;26.05;24.17;;;20.30;78.70;;;;;;5050952;28;20040;-82
2022/09/05 04:17:34;;;;;;;25.35;23.40;;;20.30;78.00;;;;;;5052927;28;20486;-82
2022/09/05 04:20:40;;;;;;;25.95;24.15;;;20.40;77.80;;;;;;5051986;28;20029;-82
2022/09/05 04:23:24;;;;;;;27.13;25.10;;;20.50;77.70;;;;;;5052089;28;20052;-82
2022/09/05 04:26:18;;;;;;;26.52;24.83;;;20.60;77.50;;;;;;5068368;28;20033;-82
2022/09/05 04:29:21;;;;;;;28.30;26.35;;;20.60;77.30;;;;;;5035213;28;20036;-82
2022/09/05 04:31:55;;;;;;;27.58;25.88;;;20.70;77.30;;;;;;5032613;28;20037;-82
2022/09/05 04:34:30;;;;;;;28.00;25.98;;;20.70;77.00;;;;;;5047223;28;20376;-82
2022/09/05 04:37:04;;;;;;;27.77;25.90;;;20.70;76.70;;;;;;5033002;28;20037;-82
2022/09/05 04:39:32;;;;;;;29.45;27.65;;;20.80;77.30;;;;;;5032621;28;20036;-82
2022/09/05 04:42:04;;;;;;;27.88;25.98;;;20.70;76.70;;;;;;5067877;28;20039;-82
2022/09/05 04:44:45;;;;;;;27.08;25.15;;;20.80;77.50;;;;;;5052341;28;20382;-82
2022/09/05 04:47:27;;;;;;;27.75;25.92;;;20.50;79.00;;;;;;5075867;28;20059;-81
2022/09/05 04:50:14;;;;;;;23.38;21.90;;;20.40;79.20;;;;;;5051034;28;20037;-82
2022/09/05 04:52:48;;;;;;;24.15;22.33;;;20.50;79.00;;;;;;5050097;28;20036;-82
2022/09/05 04:55:22;;;;;;;28.30;26.50;;;20.60;78.80;;;;;;5034676;28;20498;-83
2022/09/05 04:58:08;;;;;;;30.45;28.15;;;20.60;78.90;;;;;;5035499;28;20028;-82
2022/09/05 05:00:56;;;;;;;33.67;31.15;;;20.60;79.00;;;;;;5052073;28;20021;-84
2022/09/05 05:03:27;;;;;;;26.40;24.45;;;20.60;79.60;;;;;;5034876;28;20132;-84
2022/09/05 05:06:09;;;;;;;29.15;26.88;;;20.60;79.70;;;;;;5049086;28;20032;-84
2022/09/05 05:08:44;;;;;;;27.13;24.77;;;20.30;82.50;;;;;;5051070;28;20040;-83
2022/09/05 05:11:16;;;;;;;23.60;21.75;;;19.70;85.90;;;;;;5034554;28;20052;-83
2022/09/05 05:14:01;;;;;;;27.90;25.60;;;19.40;87.20;;;;;;5033828;28;20401;-83
2022/09/05 05:16:32;;;;;;;36.60;34.00;;;19.30;87.10;;;;;;5033615;28;20397;-82
2022/09/05 05:19:08;;;;;;;;;;;19.60;86.00;;;;;;5051202;28;20029;-82
2022/09/05 05:21:34;;;;;;;60.55;56.65;;;19.70;85.90;;;;;;5050391;28;19912;-83
2022/09/05 05:24:14;;;;;;;59.30;55.22;;;19.90;85.10;;;;;;5050772;28;20025;-83
2022/09/05 05:27:14;;;;;;;41.28;38.53;;;20.00;84.60;;;;;;5049661;28;20040;-83
2022/09/05 05:30:00;;;;;;;36.80;34.10;;;20.00;85.60;;;;;;5050745;28;20029;-82
2022/09/05 05:32:29;;;;;;;37.00;34.45;;;19.70;86.30;;;;;;5033320;28;20029;-82
2022/09/05 05:34:58;;;;;;;41.60;38.60;;;19.70;86.10;;;;;;5050484;28;20037;-83
2022/09/05 05:37:25;;;;;;;49.78;46.63;;;19.80;85.20;;;;;;5034135;28;20029;-83
2022/09/05 05:40:10;;;;;;;43.63;40.30;;;20.00;84.80;;;;;;5050337;28;20473;-82
2022/09/05 05:42:37;;;;;;;46.35;43.03;;;20.10;84.70;;;;;;5050088;28;20040;-82
2022/09/05 05:45:04;;;;;;;51.15;47.85;;;20.20;83.50;;;;;;5022710;28;20033;-82
2022/09/05 05:47:40;;;;;;;46.33;43.38;;;20.30;83.40;;;;;;5041856;28;20048;-83
2022/09/05 05:50:27;;;;;;;50.22;46.67;;;20.30;83.40;;;;;;5050244;28;20398;-83
2022/09/05 05:53:19;;;;;;;42.88;39.97;;;20.30;82.60;;;;;;5028874;28;20044;-83
2022/09/05 05:56:17;;;;;;;45.00;41.67;;;20.40;83.10;;;;;;5028440;28;20216;-82
2022/09/05 05:59:06;;;;;;;45.25;42.13;;;20.40;82.80;;;;;;5012540;28;20042;-83
2022/09/05 06:01:35;;;;;;;40.63;38.05;;;20.40;82.90;;;;;;5012313;28;20033;-82
2022/09/05 06:04:22;;;;;;;43.00;40.20;;;20.50;82.60;;;;;;5028928;28;20502;-82
2022/09/05 06:06:53;;;;;;;49.65;46.55;;;20.50;82.80;;;;;;5028945;28;20120;-82
2022/09/05 06:09:38;;;;;;;;;;;20.50;82.40;;;;;;5012889;28;20052;-82
2022/09/05 06:12:37;;;;;;;42.00;39.10;;;20.60;82.10;;;;;;5028453;28;19909;-82
2022/09/05 06:15:44;;;;;;;48.05;44.50;;;20.50;82.70;;;;;;5011726;28;20118;-81
2022/09/05 06:18:23;;;;;;;48.78;45.78;;;20.60;82.70;;;;;;5012581;28;20056;-82
2022/09/05 06:20:59;;;;;;;48.92;45.30;;;20.60;82.70;;;;;;5028352;28;20037;-82
2022/09/05 06:23:52;;;;;;;46.03;42.97;;;20.60;82.50;;;;;;5012229;28;20396;-83
2022/09/05 06:26:52;;;;;;;44.17;41.22;;;20.60;82.80;;;;;;5028411;28;20033;-82
2022/09/05 06:29:56;;;;;;;46.05;43.05;;;20.50;83.50;;;;;;5012293;28;20045;-83
2022/09/05 06:32:51;;;;;;;44.67;41.72;;;20.40;82.90;;;;;;5028402;28;20513;-82
2022/09/05 06:35:20;;;;;;;52.03;48.47;;;20.50;83.30;;;;;;5025784;28;20064;-82
2022/09/05 06:37:46;;;;;;;50.25;46.78;;;20.50;83.30;;;;;;5029077;28;20478;-83
2022/09/05 06:40:21;;;;;;;49.53;46.42;;;20.50;83.30;;;;;;5048809;28;20505;-82
2022/09/05 06:43:02;;;;;;;48.08;44.78;;;20.60;83.30;;;;;;5049757;28;20036;-82
2022/09/05 06:45:44;;;;;;;;;;;20.60;83.10;;;;;;5068425;28;20493;-82
2022/09/05 06:48:16;;;;;;;43.67;40.72;;;20.60;83.50;;;;;;5051855;28;19916;-82
2022/09/05 06:51:17;;;;;;;52.75;49.50;;;20.70;82.60;;;;;;5033457;28;20382;-82
2022/09/05 06:53:55;;;;;;;51.72;48.20;;;20.70;83.10;;;;;;5048474;28;20505;-81
2022/09/05 06:56:45;;;;;;;49.30;45.97;;;20.70;83.30;;;;;;5049415;28;20389;-82
2022/09/05 06:59:34;;;;;;;50.95;47.65;;;20.80;83.60;;;;;;5049347;28;20029;-82
2022/09/05 07:02:33;;;;;;;49.63;46.25;;;20.80;83.40;;;;;;5048772;28;20044;-82
2022/09/05 07:05:19;;;;;;;54.17;50.75;;;20.90;83.30;;;;;;5040132;28;20040;-81
2022/09/05 07:07:53;;;;;;;54.35;50.60;;;20.90;84.90;;;;;;5011294;28;20072;-82
2022/09/05 07:10:36;;;;;;;59.75;56.10;;;21.10;84.50;;;;;;4995414;28;20030;-82
2022/09/05 07:13:11;;;;;;;93.47;88.07;;;21.20;84.30;;;;;;4980391;28;20038;-82
2022/09/05 07:15:52;;;;;;;85.40;80.70;;;21.20;84.10;;;;;;5011375;28;20042;-82
2022/09/05 07:18:55;;;;;;;67.25;63.25;;;21.40;83.70;;;;;;5013077;28;20045;-82
2022/09/05 07:21:30;;;;;;;69.25;65.30;;;21.50;82.70;;;;;;5027783;28;20478;-82
2022/09/05 07:24:10;;;;;;;66.60;62.72;;;21.60;82.00;;;;;;5011706;28;20038;-82
2022/09/05 07:26:39;;;;;;;66.55;62.53;;;21.40;82.30;;;;;;4995494;28;20040;-82
2022/09/05 07:29:06;;;;;;;54.03;50.70;;;21.50;82.80;;;;;;4991922;28;20029;-82
2022/09/05 07:31:34;;;;;;;62.20;58.42;;;21.50;82.60;;;;;;5000299;28;20045;-82
2022/09/05 07:34:21;;;;;;;43.08;40.58;;;21.60;82.40;;;;;;5024557;28;20045;-82
2022/09/05 07:36:51;;;;;;;41.83;39.17;;;21.50;79.70;;;;;;5024180;28;20034;-82
2022/09/05 07:39:19;;;;;;;60.13;56.53;;;21.60;80.10;;;;;;4991334;28;20422;-82
2022/09/05 07:41:51;;;;;;;63.55;59.80;;;21.70;81.00;;;;;;5040853;28;20052;-82
2022/09/05 07:44:22;;;;;;;61.72;58.00;;;21.70;80.90;;;;;;5021276;28;20029;-82
2022/09/05 07:46:53;;;;;;;49.03;46.00;;;21.70;81.30;;;;;;5045402;28;20100;-82
2022/09/05 07:49:20;;;;;;;43.45;40.67;;;21.70;80.80;;;;;;5035229;28;20393;-82
2022/09/05 07:51:56;;;;;;;43.03;40.58;;;21.60;80.20;;;;;;5052168;28;20040;-82
2022/09/05 07:54:29;;;;;;;44.00;41.47;;;21.60;80.00;;;;;;5019635;28;20061;-82
2022/09/05 07:56:58;;;;;;;45.42;42.72;;;21.70;79.40;;;;;;5052553;28;20036;-82
2022/09/05 07:59:27;;;;;;;44.92;42.35;;;21.70;78.90;;;;;;5052529;28;20025;-82
2022/09/05 08:01:53;;;;;;;39.47;37.25;;;21.60;78.80;;;;;;5035757;28;20037;-82
2022/09/05 08:04:33;;;;;;;49.30;46.35;;;21.60;78.70;;;;;;5052462;28;20021;-82
2022/09/05 08:07:21;;;;;;;53.95;50.67;;;21.50;78.80;;;;;;5035036;28;20044;-82
2022/09/05 08:09:54;;;;;;;51.40;48.25;;;21.50;79.70;;;;;;5052000;28;20056;-82
2022/09/05 08:12:25;;;;;;;53.50;50.45;;;21.50;79.30;;;;;;5052144;28;20029;-82
2022/09/05 08:15:07;;;;;;;54.33;50.90;;;21.50;78.50;;;;;;5052400;28;20478;-82
2022/09/05 08:17:57;;;;;;;47.75;44.90;;;21.40;79.30;;;;;;5051318;28;20045;-83
2022/09/05 08:20:45;;;;;;;58.92;55.35;;;21.40;79.10;;;;;;5048363;28;20473;-82
2022/09/05 08:23:33;;;;;;;52.67;49.53;;;21.40;79.60;;;;;;5053098;28;20041;-83
2022/09/05 08:26:06;;;;;;;61.38;57.92;;;21.50;79.10;;;;;;5051901;28;20035;-83
2022/09/05 08:29:04;;;;;;;55.80;52.40;;;21.60;79.40;;;;;;5034899;28;20298;-82
2022/09/05 08:32:05;;;;;;;56.72;53.67;;;21.70;79.00;;;;;;5048521;28;20025;-83
2022/09/05 08:34:43;;;;;;;43.00;39.95;;;21.80;79.10;;;;;;5030096;28;20037;-82
2022/09/05 08:37:22;;;;;;;42.25;39.75;;;21.90;78.50;;;;;;5030674;28;20521;-83
2022/09/05 08:39:51;;;;;;;64.72;61.15;;;21.90;78.00;;;;;;5026986;28;20141;-83
2022/09/05 08:42:23;;;;;;;65.32;61.75;;;21.80;77.20;;;;;;5026751;28;20034;-83
2022/09/05 08:45:13;;;;;;;60.97;57.67;;;21.80;77.30;;;;;;5013701;28;20041;-83
2022/09/05 08:48:06;;;;;;;51.60;48.53;;;21.80;76.30;;;;;;5029493;28;20053;-82
2022/09/05 08:51:00;;;;;;;62.40;58.75;;;21.80;77.00;;;;;;5029866;28;20056;-83
2022/09/05 08:53:45;;;;;;;65.60;62.05;;;21.80;76.70;;;;;;5030350;28;20041;-83
2022/09/05 08:56:19;;;;;;;59.13;55.42;;;21.90;76.70;;;;;;5030237;28;20038;-83
2022/09/05 08:58:58;;;;;;;65.00;61.65;;;22.00;77.60;;;;;;5030087;28;20445;-83
2022/09/05 09:01:37;;;;;;;71.13;66.88;;;22.10;76.00;;;;;;5029804;28;20521;-83
2022/09/05 09:04:24;;;;;;;63.65;60.13;;;22.20;76.50;;;;;;5012733;28;20046;-83
2022/09/05 09:07:09;;;;;;;71.65;67.90;;;22.40;76.80;;;;;;5013631;28;20044;-83
2022/09/05 09:09:58;;;;;;;99.28;94.10;;;22.60;76.90;;;;;;5030047;28;20037;-83
2022/09/05 09:12:51;;;;;;;111.13;105.43;;;22.80;75.30;;;;;;5049751;28;20394;-83
2022/09/05 09:15:23;;;;;;;67.55;63.88;;;22.90;73.90;;;;;;5051360;28;20060;-83
2022/09/05 09:17:49;;;;;;;65.65;62.17;;;22.90;71.70;;;;;;5034905;28;20386;-83
2022/09/05 09:20:27;;;;;;;41.88;39.60;;;22.90;72.10;;;;;;5051478;28;20040;-84
2022/09/05 09:23:05;;;;;;;45.53;42.97;;;23.00;70.70;;;;;;5052664;28;20033;-84
2022/09/05 09:26:04;;;;;;;52.15;49.30;;;23.00;70.20;;;;;;5051917;28;20358;-84
2022/09/05 09:28:37;;;;;;;38.63;36.42;;;22.90;71.40;;;;;;5043626;28;20056;-84
2022/09/05 09:31:39;;;;;;;42.45;40.25;;;23.20;71.20;;;;;;4997222;28;20033;-83
2022/09/05 09:34:24;;;;;;;38.58;36.50;;;23.40;69.80;;;;;;4999567;28;20033;-84
2022/09/05 09:37:15;;;;;;;37.28;35.03;;;23.70;69.50;;;;;;5029464;28;20418;-84
2022/09/05 09:39:56;;;;;;;;;;;23.80;69.50;;;;;;5013231;28;20038;-84
2022/09/05 09:42:27;;;;;;;40.45;38.13;;;24.00;68.10;;;;;;5029280;28;19909;-85
2022/09/05 09:45:14;;;;;;;43.30;41.00;;;24.30;67.80;;;;;;5029204;28;20030;-85
2022/09/05 09:48:00;;;;;;;43.45;41.25;;;24.60;64.10;;;;;;4991736;28;20542;-84
2022/09/05 09:50:52;;;;;;;35.63;33.65;;;24.70;63.50;;;;;;5009471;28;20511;-84
2022/09/05 09:53:24;;;;;;;43.85;41.45;;;24.80;61.20;;;;;;4951134;29;20052;-84
2022/09/05 09:56:12;;;;;;;48.28;45.88;;;24.80;61.30;;;;;;4951028;29;20051;-84
2022/09/05 09:58:46;;;;;;;36.53;34.63;;;24.90;61.90;;;;;;4935908;29;20370;-84
2022/09/05 10:01:39;;;;;;;33.33;31.45;;;24.90;61.00;;;;;;4969439;28;20087;-84
2022/09/05 10:04:23;;;;;;;37.85;35.85;;;24.90;61.40;;;;;;4912874;29;20536;-84
2022/09/05 10:07:19;;;;;;;33.10;31.02;;;25.00;62.20;;;;;;4894075;29;20033;-84
2022/09/05 10:09:52;;;;;;;38.50;36.40;;;24.90;60.20;;;;;;4892624;29;20045;-83
2022/09/05 10:12:30;;;;;;;38.63;36.45;;;24.80;60.70;;;;;;4893507;29;20055;-82
2022/09/05 10:15:11;;;;;;;38.15;35.95;;;24.80;60.90;;;;;;4893941;29;20052;-84
2022/09/05 10:17:49;;;;;;;41.97;39.78;;;24.60;61.00;;;;;;4911615;29;20417;-84
2022/09/05 10:20:38;;;;;;;46.50;43.80;;;24.50;61.40;;;;;;4912754;29;20054;-83
2022/09/05 10:23:17;;;;;;;42.17;39.88;;;24.50;61.40;;;;;;4881417;29;20379;-83
2022/09/05 10:26:13;;;;;;;39.35;37.28;;;24.40;61.50;;;;;;4897218;29;20036;-83
2022/09/05 10:29:06;;;;;;;42.97;40.67;;;24.50;62.80;;;;;;4893601;29;20044;-83
2022/09/05 10:31:58;;;;;;;51.20;48.42;;;24.70;61.70;;;;;;4914921;29;20039;-84
2022/09/05 10:34:27;;;;;;;55.92;52.95;;;24.70;61.50;;;;;;4916478;29;20044;-83
2022/09/05 10:37:01;;;;;;;57.90;54.90;;;24.60;61.70;;;;;;4931601;29;20039;-84
2022/09/05 10:39:29;;;;;;;53.50;50.80;;;24.70;62.00;;;;;;4916028;29;20511;-84
2022/09/05 10:42:01;;;;;;;54.47;51.65;;;24.60;59.80;;;;;;4985347;28;20049;-84
2022/09/05 10:44:39;;;;;;;56.35;53.40;;;24.50;60.90;;;;;;4992119;28;20042;-83
2022/09/05 10:47:24;;;;;;;62.40;59.15;;;24.50;61.40;;;;;;4983754;28;20572;-84
2022/09/05 10:49:57;;;;;;;47.65;45.28;;;24.50;61.80;;;;;;4974829;28;20098;-83
2022/09/05 10:52:47;;;;;;;49.83;47.20;;;24.60;59.90;;;;;;4957500;28;20395;-84
2022/09/05 10:55:20;;;;;;;35.83;33.92;;;24.60;60.40;;;;;;4988863;28;20407;-84
2022/09/05 10:58:23;;;;;;;41.50;39.30;;;24.90;59.30;;;;;;4972591;28;20050;-84
2022/09/05 11:01:08;;;;;;;43.63;41.33;;;25.00;59.40;;;;;;4972025;28;20403;-84
2022/09/05 11:03:49;;;;;;;40.10;37.45;;;25.20;59.00;;;;;;4957226;28;20123;-84
2022/09/05 11:06:17;;;;;;;38.53;36.43;;;25.20;58.70;;;;;;5001342;28;20372;-84
2022/09/05 11:08:49;;;;;;;36.25;34.38;;;25.30;59.30;;;;;;5017348;28;20741;-84
2022/09/05 11:11:21;;;;;;;32.10;30.42;;;25.30;59.30;;;;;;5050493;28;20036;-84
2022/09/05 11:13:49;;;;;;;30.17;28.42;;;25.30;59.30;;;;;;5033163;28;20040;-84
2022/09/05 11:16:27;;;;;;;26.65;24.92;;;25.40;59.20;;;;;;5048386;28;20049;-85
2022/09/05 11:18:57;;;;;;;25.65;24.17;;;25.50;58.30;;;;;;5050516;28;20036;-85
2022/09/05 11:21:57;;;;;;;22.42;21.23;;;25.70;58.20;;;;;;5049351;28;20040;-85
2022/09/05 11:24:27;;;;;;;29.95;28.08;;;25.70;57.20;;;;;;5051995;28;20521;-84
2022/09/05 11:27:17;;;;;;;25.35;23.95;;;25.50;58.20;;;;;;5052892;28;20036;-85
2022/09/05 11:29:46;;;;;;;23.25;22.05;;;25.70;58.20;;;;;;5052606;28;20051;-84
2022/09/05 11:32:27;;;;;;;24.20;22.70;;;25.70;58.00;;;;;;5036057;28;20055;-84
2022/09/05 11:35:02;;;;;;;25.42;24.02;;;25.70;58.40;;;;;;5054115;28;20036;-84
2022/09/05 11:37:53;;;;;;;24.80;23.23;;;25.70;58.70;;;;;;5054184;28;20029;-84
2022/09/05 11:40:25;;;;;;;27.30;25.50;;;25.70;58.50;;;;;;5053051;28;20029;-83
2022/09/05 11:43:53;;;;;;;24.90;23.35;;;25.80;58.60;;;;;;5052780;28;20037;-85
2022/09/05 11:46:31;;;;;;;24.77;23.38;;;25.90;59.10;;;;;;4981527;28;20030;-83
2022/09/05 11:49:17;;;;;;;27.73;26.13;;;25.80;58.90;;;;;;4979642;28;20058;-84
2022/09/05 11:52:02;;;;;;;27.40;25.90;;;25.80;59.20;;;;;;4997473;28;20034;-84
2022/09/05 11:54:37;;;;;;;27.80;26.23;;;25.80;59.30;;;;;;5011743;28;20038;-83
2022/09/05 11:57:39;;;;;;;26.58;24.98;;;25.80;59.40;;;;;;4996253;28;20041;-84
2022/09/05 12:00:19;;;;;;;27.00;25.40;;;25.80;59.10;;;;;;4933698;29;20039;-85
2022/09/05 12:02:58;;;;;;;25.08;23.50;;;26.00;59.30;;;;;;4933606;29;20044;-84
2022/09/05 12:05:53;;;;;;;26.98;25.48;;;26.00;59.50;;;;;;4933879;29;20493;-84
2022/09/05 12:08:47;;;;;;;29.05;27.42;;;26.00;59.70;;;;;;4917807;29;20044;-83
2022/09/05 12:11:28;;;;;;;29.77;28.08;;;26.00;60.10;;;;;;4933855;29;20039;-84
2022/09/05 12:14:13;;;;;;;27.75;26.05;;;25.90;60.20;;;;;;4933142;29;20043;-85
2022/09/05 12:17:01;;;;;;;30.63;28.77;;;25.90;60.30;;;;;;4933332;29;20047;-85
2022/09/05 12:19:42;;;;;;;33.08;31.08;;;25.90;60.50;;;;;;4933608;29;20079;-84
2022/09/05 12:22:34;;;;;;;30.60;28.90;;;25.90;61.30;;;;;;4965865;28;20049;-84
2022/09/05 12:25:19;;;;;;;28.73;27.02;;;26.00;60.80;;;;;;4991318;28;20042;-84
2022/09/05 12:27:48;;;;;;;30.98;29.33;;;26.10;60.70;;;;;;4974770;28;20055;-84
2022/09/05 12:30:22;;;;;;;29.45;27.77;;;26.30;61.10;;;;;;4974183;28;20108;-84
2022/09/05 12:33:15;;;;;;;31.25;29.30;;;26.40;60.30;;;;;;4991329;28;20039;-84
2022/09/05 12:35:53;;;;;;;40.15;37.67;;;26.40;60.90;;;;;;5070227;28;20048;-84
2022/09/05 12:38:25;;;;;;;28.48;26.88;;;26.30;61.10;;;;;;5035000;28;20037;-83
2022/09/05 12:41:20;;;;;;;29.10;27.30;;;26.40;60.50;;;;;;5052636;28;20032;-84
2022/09/05 12:44:00;;;;;;;25.70;24.25;;;26.40;60.70;;;;;;5050690;28;20037;-84
2022/09/05 12:46:50;;;;;;;30.00;28.10;;;26.60;60.10;;;;;;5061304;28;20378;-84
2022/09/05 12:49:39;;;;;;;31.65;29.55;;;26.70;60.20;;;;;;5020457;28;20044;-84
2022/09/05 12:52:35;;;;;;;26.55;24.85;;;26.80;60.40;;;;;;5051686;28;20025;-84
2022/09/05 12:55:10;;;;;;;28.48;26.58;;;26.90;60.20;;;;;;5050358;28;20044;-84
2022/09/05 12:57:39;;;;;;;23.67;22.17;;;26.90;59.70;;;;;;5018508;28;20041;-84
2022/09/05 13:00:10;;;;;;;22.52;20.88;;;27.00;59.90;;;;;;5017505;28;20033;-85
2022/09/05 13:02:38;;;;;;;25.77;24.02;;;27.10;59.60;;;;;;5052419;28;20474;-84
2022/09/05 13:05:11;;;;;;;23.85;22.05;;;27.20;59.90;;;;;;5051487;28;20052;-84
2022/09/05 13:07:41;;;;;;;22.35;20.58;;;27.40;59.80;;;;;;5034608;28;20401;-85
2022/09/05 13:10:11;;;;;;;22.90;21.30;;;27.60;59.50;;;;;;5051006;28;20044;-84
2022/09/05 13:12:46;;;;;;;23.58;21.88;;;27.70;58.80;;;;;;5051037;28;20036;-84
2022/09/05 13:15:23;;;;;;;23.90;22.60;;;27.60;59.00;;;;;;5050231;28;20045;-84
2022/09/05 13:18:01;;;;;;;24.25;22.52;;;27.50;58.80;;;;;;5050849;28;20033;-84
2022/09/05 13:20:35;;;;;;;23.80;21.70;;;27.30;60.00;;;;;;5050820;28;20033;-84
2022/09/05 13:23:09;;;;;;;25.55;23.60;;;27.40;59.80;;;;;;5050975;28;20040;-84
2022/09/05 13:25:36;;;;;;;25.95;23.98;;;27.40;60.70;;;;;;5034182;28;20037;-84
2022/09/05 13:28:05;;;;;;;25.50;23.83;;;27.50;60.10;;;;;;5050756;28;20039;-84
2022/09/05 13:30:34;;;;;;;25.38;23.83;;;27.60;60.00;;;;;;5050008;28;20029;-84
2022/09/05 13:33:26;;;;;;;26.60;24.80;;;27.80;60.10;;;;;;5050772;28;20032;-84
2022/09/05 13:36:07;;;;;;;27.55;25.52;;;28.00;59.60;;;;;;5050463;28;20390;-84
2022/09/05 13:38:43;;;;;;;27.23;25.17;;;28.10;59.30;;;;;;5050678;28;20025;-85